sensor_id;sensor_type;location;lat;lon;timestamp;temperature;humidity
33943;DHT22;66763;47.856;17.462;2023-03-14T00:01:32;11.40;48.30
33943;DHT22;66763;47.856;17.462;2023-03-14T00:03:58;11.40;48.30
33943;DHT22;66763;47.856;17.462;2023-03-14T00:06:24;11.40;48.30
33943;DHT22;66763;47.856;17.462;2023-03-14T00:08:50;11.40;48.30
33943;DHT22;66763;47.856;17.462;2023-03-14T00:11:18;11.30;48.30
33943;DHT22;66763;47.856;17.462;2023-03-14T00:13:46;11.40;48.30
33943;DHT22;66763;47.856;17.462;2023-03-14T00:16:12;11.30;48.30
33943;DHT22;66763;47.856;17.462;2023-03-14T00:18:38;11.30;48.30
33943;DHT22;66763;47.856;17.462;2023-03-14T00:21:05;11.30;48.30
33943;DHT22;66763;47.856;17.462;2023-03-14T00:23:31;11.30;48.30
33943;DHT22;66763;47.856;17.462;2023-03-14T00:26:01;11.30;48.30
33943;DHT22;66763;47.856;17.462;2023-03-14T00:28:26;11.40;48.30
33943;DHT22;66763;47.856;17.462;2023-03-14T00:30:52;11.30;48.20
33943;DHT22;66763;47.856;17.462;2023-03-14T00:33:17;11.30;48.20
33943;DHT22;66763;47.856;17.462;2023-03-14T00:35:43;11.30;48.30
33943;DHT22;66763;47.856;17.462;2023-03-14T00:38:08;11.30;48.30
33943;DHT22;66763;47.856;17.462;2023-03-14T00:40:34;11.30;48.30
33943;DHT22;66763;47.856;17.462;2023-03-14T00:43:03;11.30;48.30
33943;DHT22;66763;47.856;17.462;2023-03-14T00:45:29;11.30;48.20
33943;DHT22;66763;47.856;17.462;2023-03-14T00:47:54;11.40;48.30
33943;DHT22;66763;47.856;17.462;2023-03-14T00:50:20;11.30;48.30
33943;DHT22;66763;47.856;17.462;2023-03-14T00:52:45;11.30;48.30
33943;DHT22;66763;47.856;17.462;2023-03-14T00:55:13;11.30;48.30
33943;DHT22;66763;47.856;17.462;2023-03-14T00:57:39;11.30;48.40
33943;DHT22;66763;47.856;17.462;2023-03-14T01:00:05;11.30;48.30
33943;DHT22;66763;47.856;17.462;2023-03-14T01:02:32;11.30;48.30
33943;DHT22;66763;47.856;17.462;2023-03-14T01:04:58;11.30;48.30
33943;DHT22;66763;47.856;17.462;2023-03-14T01:07:23;11.30;48.30
33943;DHT22;66763;47.856;17.462;2023-03-14T01:09:51;11.40;48.40
33943;DHT22;66763;47.856;17.462;2023-03-14T01:12:16;11.30;48.30
33943;DHT22;66763;47.856;17.462;2023-03-14T01:14:42;11.30;48.30
33943;DHT22;66763;47.856;17.462;2023-03-14T01:17:07;11.30;48.40
33943;DHT22;66763;47.856;17.462;2023-03-14T01:19:33;11.30;48.40
33943;DHT22;66763;47.856;17.462;2023-03-14T01:21:58;11.30;48.90
33943;DHT22;66763;47.856;17.462;2023-03-14T01:24:24;11.30;48.40
33943;DHT22;66763;47.856;17.462;2023-03-14T01:26:49;11.30;48.40
33943;DHT22;66763;47.856;17.462;2023-03-14T01:29:15;11.30;48.40
33943;DHT22;66763;47.856;17.462;2023-03-14T01:31:40;11.30;48.50
33943;DHT22;66763;47.856;17.462;2023-03-14T01:34:06;11.30;48.30
33943;DHT22;66763;47.856;17.462;2023-03-14T01:36:31;11.40;48.40
33943;DHT22;66763;47.856;17.462;2023-03-14T01:38:57;11.30;48.30
33943;DHT22;66763;47.856;17.462;2023-03-14T01:41:23;11.30;48.30
33943;DHT22;66763;47.856;17.462;2023-03-14T01:43:49;11.40;48.30
33943;DHT22;66763;47.856;17.462;2023-03-14T01:48:48;11.40;48.50
33943;DHT22;66763;47.856;17.462;2023-03-14T01:51:26;11.40;48.90
33943;DHT22;66763;47.856;17.462;2023-03-14T01:53:54;11.40;48.30
33943;DHT22;66763;47.856;17.462;2023-03-14T01:56:21;11.40;48.30
33943;DHT22;66763;47.856;17.462;2023-03-14T01:58:48;11.40;48.30
33943;DHT22;66763;47.856;17.462;2023-03-14T02:01:16;11.40;48.40
33943;DHT22;66763;47.856;17.462;2023-03-14T02:03:46;11.40;48.20
33943;DHT22;66763;47.856;17.462;2023-03-14T02:06:12;11.40;48.20
33943;DHT22;66763;47.856;17.462;2023-03-14T02:08:40;11.40;48.20
33943;DHT22;66763;47.856;17.462;2023-03-14T02:11:05;11.40;48.20
33943;DHT22;66763;47.856;17.462;2023-03-14T02:13:32;11.40;48.20
33943;DHT22;66763;47.856;17.462;2023-03-14T02:15:58;11.40;48.30
33943;DHT22;66763;47.856;17.462;2023-03-14T02:18:24;11.40;48.30
33943;DHT22;66763;47.856;17.462;2023-03-14T02:23:27;11.50;48.30
33943;DHT22;66763;47.856;17.462;2023-03-14T02:28:50;11.40;48.20
33943;DHT22;66763;47.856;17.462;2023-03-14T02:31:16;11.40;48.30
33943;DHT22;66763;47.856;17.462;2023-03-14T02:33:41;11.40;48.20
33943;DHT22;66763;47.856;17.462;2023-03-14T02:36:07;11.40;48.20
33943;DHT22;66763;47.856;17.462;2023-03-14T02:38:39;11.40;48.20
33943;DHT22;66763;47.856;17.462;2023-03-14T02:41:07;11.40;48.20
33943;DHT22;66763;47.856;17.462;2023-03-14T02:43:32;11.40;48.30
33943;DHT22;66763;47.856;17.462;2023-03-14T02:45:58;11.40;48.30
33943;DHT22;66763;47.856;17.462;2023-03-14T02:48:28;11.40;48.20
33943;DHT22;66763;47.856;17.462;2023-03-14T02:50:56;11.40;48.30
33943;DHT22;66763;47.856;17.462;2023-03-14T02:53:24;11.40;48.30
33943;DHT22;66763;47.856;17.462;2023-03-14T02:55:50;11.40;48.30
33943;DHT22;66763;47.856;17.462;2023-03-14T02:58:16;11.40;48.30
33943;DHT22;66763;47.856;17.462;2023-03-14T03:00:42;11.40;48.30
33943;DHT22;66763;47.856;17.462;2023-03-14T03:03:08;11.40;48.30
33943;DHT22;66763;47.856;17.462;2023-03-14T03:05:33;11.40;48.30
33943;DHT22;66763;47.856;17.462;2023-03-14T03:07:59;11.40;48.30
33943;DHT22;66763;47.856;17.462;2023-03-14T03:10:25;11.40;48.30
33943;DHT22;66763;47.856;17.462;2023-03-14T03:12:51;11.40;48.30
33943;DHT22;66763;47.856;17.462;2023-03-14T03:15:17;11.40;48.30
33943;DHT22;66763;47.856;17.462;2023-03-14T03:17:42;11.40;48.30
33943;DHT22;66763;47.856;17.462;2023-03-14T03:20:08;11.40;48.30
33943;DHT22;66763;47.856;17.462;2023-03-14T03:22:34;11.40;48.30
33943;DHT22;66763;47.856;17.462;2023-03-14T03:25:00;11.40;48.30
33943;DHT22;66763;47.856;17.462;2023-03-14T03:27:26;11.40;48.30
33943;DHT22;66763;47.856;17.462;2023-03-14T03:29:51;11.40;48.40
33943;DHT22;66763;47.856;17.462;2023-03-14T03:32:16;11.40;48.40
33943;DHT22;66763;47.856;17.462;2023-03-14T03:34:42;11.40;48.40
33943;DHT22;66763;47.856;17.462;2023-03-14T03:37:07;11.40;48.40
33943;DHT22;66763;47.856;17.462;2023-03-14T03:39:33;11.40;48.40
33943;DHT22;66763;47.856;17.462;2023-03-14T03:41:59;11.40;48.50
33943;DHT22;66763;47.856;17.462;2023-03-14T03:44:24;11.40;48.40
33943;DHT22;66763;47.856;17.462;2023-03-14T03:46:49;11.40;48.40
33943;DHT22;66763;47.856;17.462;2023-03-14T03:49:15;11.40;48.40
33943;DHT22;66763;47.856;17.462;2023-03-14T03:51:40;11.40;48.40
33943;DHT22;66763;47.856;17.462;2023-03-14T03:54:06;11.40;48.40
33943;DHT22;66763;47.856;17.462;2023-03-14T03:56:31;11.40;48.40
33943;DHT22;66763;47.856;17.462;2023-03-14T03:58:57;11.40;48.40
33943;DHT22;66763;47.856;17.462;2023-03-14T04:01:22;11.40;48.40
33943;DHT22;66763;47.856;17.462;2023-03-14T04:03:48;11.40;48.40
33943;DHT22;66763;47.856;17.462;2023-03-14T04:06:13;11.40;48.40
33943;DHT22;66763;47.856;17.462;2023-03-14T04:08:39;11.40;48.40
33943;DHT22;66763;47.856;17.462;2023-03-14T04:11:06;11.40;48.40
33943;DHT22;66763;47.856;17.462;2023-03-14T04:13:31;11.40;48.40
33943;DHT22;66763;47.856;17.462;2023-03-14T04:15:57;11.40;48.40
33943;DHT22;66763;47.856;17.462;2023-03-14T04:18:23;11.40;48.40
33943;DHT22;66763;47.856;17.462;2023-03-14T04:20:53;11.40;48.40
33943;DHT22;66763;47.856;17.462;2023-03-14T04:23:19;11.40;48.40
33943;DHT22;66763;47.856;17.462;2023-03-14T04:25:44;11.40;48.40
33943;DHT22;66763;47.856;17.462;2023-03-14T04:28:10;11.40;48.50
33943;DHT22;66763;47.856;17.462;2023-03-14T04:30:35;11.40;48.50
33943;DHT22;66763;47.856;17.462;2023-03-14T04:33:01;11.40;48.40
33943;DHT22;66763;47.856;17.462;2023-03-14T04:35:26;11.40;48.50
33943;DHT22;66763;47.856;17.462;2023-03-14T04:37:52;11.40;48.40
33943;DHT22;66763;47.856;17.462;2023-03-14T04:40:17;11.40;48.50
33943;DHT22;66763;47.856;17.462;2023-03-14T04:42:43;11.40;48.50
33943;DHT22;66763;47.856;17.462;2023-03-14T04:45:08;11.40;48.50
33943;DHT22;66763;47.856;17.462;2023-03-14T04:47:34;11.40;48.50
33943;DHT22;66763;47.856;17.462;2023-03-14T04:50:00;11.40;48.50
33943;DHT22;66763;47.856;17.462;2023-03-14T04:52:26;11.40;49.10
33943;DHT22;66763;47.856;17.462;2023-03-14T04:54:52;11.40;48.50
33943;DHT22;66763;47.856;17.462;2023-03-14T04:57:17;11.40;48.50
33943;DHT22;66763;47.856;17.462;2023-03-14T04:59:43;11.40;48.50
33943;DHT22;66763;47.856;17.462;2023-03-14T05:02:08;11.40;48.60
33943;DHT22;66763;47.856;17.462;2023-03-14T05:04:34;11.40;48.70
33943;DHT22;66763;47.856;17.462;2023-03-14T05:07:00;11.40;48.60
33943;DHT22;66763;47.856;17.462;2023-03-14T05:09:25;11.40;48.60
33943;DHT22;66763;47.856;17.462;2023-03-14T05:11:51;11.40;48.60
33943;DHT22;66763;47.856;17.462;2023-03-14T05:14:16;11.40;48.70
33943;DHT22;66763;47.856;17.462;2023-03-14T05:16:42;11.40;48.70
33943;DHT22;66763;47.856;17.462;2023-03-14T05:19:07;11.40;48.70
33943;DHT22;66763;47.856;17.462;2023-03-14T05:21:33;11.40;48.70
33943;DHT22;66763;47.856;17.462;2023-03-14T05:23:58;11.40;48.70
33943;DHT22;66763;47.856;17.462;2023-03-14T05:26:24;11.40;48.70
33943;DHT22;66763;47.856;17.462;2023-03-14T05:28:49;11.40;48.70
33943;DHT22;66763;47.856;17.462;2023-03-14T05:31:15;11.40;48.70
33943;DHT22;66763;47.856;17.462;2023-03-14T05:33:40;11.40;48.70
33943;DHT22;66763;47.856;17.462;2023-03-14T05:36:06;11.40;48.70
33943;DHT22;66763;47.856;17.462;2023-03-14T05:38:32;11.40;48.70
33943;DHT22;66763;47.856;17.462;2023-03-14T05:40:57;11.40;48.90
33943;DHT22;66763;47.856;17.462;2023-03-14T05:43:23;11.40;48.70
33943;DHT22;66763;47.856;17.462;2023-03-14T05:45:48;11.40;48.70
33943;DHT22;66763;47.856;17.462;2023-03-14T05:48:14;11.40;48.70
33943;DHT22;66763;47.856;17.462;2023-03-14T05:50:39;11.40;48.70
33943;DHT22;66763;47.856;17.462;2023-03-14T05:53:05;11.40;48.70
33943;DHT22;66763;47.856;17.462;2023-03-14T05:55:30;11.40;48.80
33943;DHT22;66763;47.856;17.462;2023-03-14T05:57:56;11.40;48.80
33943;DHT22;66763;47.856;17.462;2023-03-14T06:00:21;11.40;48.80
33943;DHT22;66763;47.856;17.462;2023-03-14T06:02:47;11.40;48.80
33943;DHT22;66763;47.856;17.462;2023-03-14T06:05:13;11.40;48.90
33943;DHT22;66763;47.856;17.462;2023-03-14T06:10:22;11.40;48.90
33943;DHT22;66763;47.856;17.462;2023-03-14T06:12:48;11.40;48.90
33943;DHT22;66763;47.856;17.462;2023-03-14T06:15:13;11.40;49.00
33943;DHT22;66763;47.856;17.462;2023-03-14T06:17:39;11.40;48.90
33943;DHT22;66763;47.856;17.462;2023-03-14T06:20:04;11.40;48.90
33943;DHT22;66763;47.856;17.462;2023-03-14T06:22:30;11.40;49.00
33943;DHT22;66763;47.856;17.462;2023-03-14T06:24:56;11.40;49.00
33943;DHT22;66763;47.856;17.462;2023-03-14T06:27:21;11.40;49.00
33943;DHT22;66763;47.856;17.462;2023-03-14T06:29:47;11.40;49.00
33943;DHT22;66763;47.856;17.462;2023-03-14T06:32:12;11.40;49.00
33943;DHT22;66763;47.856;17.462;2023-03-14T06:34:37;11.40;49.00
33943;DHT22;66763;47.856;17.462;2023-03-14T06:37:03;11.40;49.00
33943;DHT22;66763;47.856;17.462;2023-03-14T06:39:29;11.40;49.00
33943;DHT22;66763;47.856;17.462;2023-03-14T06:41:55;11.40;49.00
33943;DHT22;66763;47.856;17.462;2023-03-14T06:44:20;11.40;49.00
33943;DHT22;66763;47.856;17.462;2023-03-14T06:46:46;11.40;49.00
33943;DHT22;66763;47.856;17.462;2023-03-14T06:49:11;11.40;49.00
33943;DHT22;66763;47.856;17.462;2023-03-14T06:51:37;11.40;49.00
33943;DHT22;66763;47.856;17.462;2023-03-14T06:54:02;11.40;49.00
33943;DHT22;66763;47.856;17.462;2023-03-14T06:56:28;11.40;49.00
33943;DHT22;66763;47.856;17.462;2023-03-14T06:58:53;11.40;49.00
33943;DHT22;66763;47.856;17.462;2023-03-14T07:01:23;11.40;49.70
33943;DHT22;66763;47.856;17.462;2023-03-14T07:03:49;11.40;49.10
33943;DHT22;66763;47.856;17.462;2023-03-14T07:06:14;11.40;49.10
33943;DHT22;66763;47.856;17.462;2023-03-14T07:08:40;11.40;49.10
33943;DHT22;66763;47.856;17.462;2023-03-14T07:11:07;11.40;49.10
33943;DHT22;66763;47.856;17.462;2023-03-14T07:13:32;11.40;49.10
33943;DHT22;66763;47.856;17.462;2023-03-14T07:15:58;11.40;49.10
33943;DHT22;66763;47.856;17.462;2023-03-14T07:18:23;11.40;49.20
33943;DHT22;66763;47.856;17.462;2023-03-14T07:20:49;11.40;49.20
33943;DHT22;66763;47.856;17.462;2023-03-14T07:23:15;11.30;49.20
33943;DHT22;66763;47.856;17.462;2023-03-14T07:25:40;11.40;49.30
33943;DHT22;66763;47.856;17.462;2023-03-14T07:28:06;11.40;49.30
33943;DHT22;66763;47.856;17.462;2023-03-14T07:30:31;11.40;49.30
33943;DHT22;66763;47.856;17.462;2023-03-14T07:32:57;11.40;49.30
33943;DHT22;66763;47.856;17.462;2023-03-14T07:35:22;11.40;49.40
33943;DHT22;66763;47.856;17.462;2023-03-14T07:37:48;11.40;49.40
33943;DHT22;66763;47.856;17.462;2023-03-14T07:40:13;11.40;49.50
33943;DHT22;66763;47.856;17.462;2023-03-14T07:42:41;11.40;49.30
33943;DHT22;66763;47.856;17.462;2023-03-14T07:45:07;11.40;49.40
33943;DHT22;66763;47.856;17.462;2023-03-14T07:47:32;11.40;49.40
33943;DHT22;66763;47.856;17.462;2023-03-14T07:49:58;11.40;49.40
33943;DHT22;66763;47.856;17.462;2023-03-14T07:52:23;11.40;49.40
33943;DHT22;66763;47.856;17.462;2023-03-14T07:54:49;11.40;49.50
33943;DHT22;66763;47.856;17.462;2023-03-14T07:57:15;11.40;49.40
33943;DHT22;66763;47.856;17.462;2023-03-14T07:59:40;11.40;49.50
33943;DHT22;66763;47.856;17.462;2023-03-14T08:02:07;11.40;49.40
33943;DHT22;66763;47.856;17.462;2023-03-14T08:04:37;11.40;49.40
33943;DHT22;66763;47.856;17.462;2023-03-14T08:07:02;11.40;49.30
33943;DHT22;66763;47.856;17.462;2023-03-14T08:09:28;11.40;49.40
33943;DHT22;66763;47.856;17.462;2023-03-14T08:11:53;11.40;49.40
33943;DHT22;66763;47.856;17.462;2023-03-14T08:14:19;11.40;49.40
33943;DHT22;66763;47.856;17.462;2023-03-14T08:16:45;11.40;49.40
33943;DHT22;66763;47.856;17.462;2023-03-14T08:19:10;11.40;49.40
33943;DHT22;66763;47.856;17.462;2023-03-14T08:21:36;11.40;49.40
33943;DHT22;66763;47.856;17.462;2023-03-14T08:24:02;11.40;49.40
33943;DHT22;66763;47.856;17.462;2023-03-14T08:26:27;11.40;49.30
33943;DHT22;66763;47.856;17.462;2023-03-14T08:28:53;11.40;49.50
33943;DHT22;66763;47.856;17.462;2023-03-14T08:31:18;11.40;49.30
33943;DHT22;66763;47.856;17.462;2023-03-14T08:33:44;11.40;49.40
33943;DHT22;66763;47.856;17.462;2023-03-14T08:36:10;11.40;49.40
33943;DHT22;66763;47.856;17.462;2023-03-14T08:38:35;11.40;49.40
33943;DHT22;66763;47.856;17.462;2023-03-14T08:41:01;11.40;49.40
33943;DHT22;66763;47.856;17.462;2023-03-14T08:43:28;11.40;49.30
33943;DHT22;66763;47.856;17.462;2023-03-14T08:45:56;11.40;49.30
33943;DHT22;66763;47.856;17.462;2023-03-14T08:48:22;11.40;49.30
33943;DHT22;66763;47.856;17.462;2023-03-14T08:50:47;11.40;49.40
33943;DHT22;66763;47.856;17.462;2023-03-14T08:53:13;11.50;49.40
33943;DHT22;66763;47.856;17.462;2023-03-14T08:55:38;11.40;49.40
33943;DHT22;66763;47.856;17.462;2023-03-14T08:58:04;11.50;49.50
33943;DHT22;66763;47.856;17.462;2023-03-14T09:00:29;11.50;49.50
33943;DHT22;66763;47.856;17.462;2023-03-14T09:02:55;11.50;49.50
33943;DHT22;66763;47.856;17.462;2023-03-14T09:05:20;11.50;49.50
33943;DHT22;66763;47.856;17.462;2023-03-14T09:07:46;11.50;49.50
33943;DHT22;66763;47.856;17.462;2023-03-14T09:10:11;11.50;49.50
33943;DHT22;66763;47.856;17.462;2023-03-14T09:12:37;11.50;49.50
33943;DHT22;66763;47.856;17.462;2023-03-14T09:15:03;11.50;49.50
33943;DHT22;66763;47.856;17.462;2023-03-14T09:17:28;11.50;49.50
33943;DHT22;66763;47.856;17.462;2023-03-14T09:19:54;11.50;49.50
33943;DHT22;66763;47.856;17.462;2023-03-14T09:22:19;11.50;49.50
33943;DHT22;66763;47.856;17.462;2023-03-14T09:24:45;11.50;49.60
33943;DHT22;66763;47.856;17.462;2023-03-14T09:27:11;11.50;49.50
33943;DHT22;66763;47.856;17.462;2023-03-14T09:29:37;11.50;49.50
33943;DHT22;66763;47.856;17.462;2023-03-14T09:32:02;11.50;49.60
33943;DHT22;66763;47.856;17.462;2023-03-14T09:34:28;11.50;49.60
33943;DHT22;66763;47.856;17.462;2023-03-14T09:36:54;11.50;49.70
33943;DHT22;66763;47.856;17.462;2023-03-14T09:39:20;11.50;49.60
33943;DHT22;66763;47.856;17.462;2023-03-14T09:41:49;11.50;49.50
33943;DHT22;66763;47.856;17.462;2023-03-14T09:44:21;11.50;49.50
33943;DHT22;66763;47.856;17.462;2023-03-14T09:46:50;11.50;49.50
33943;DHT22;66763;47.856;17.462;2023-03-14T09:51:49;11.50;49.50
33943;DHT22;66763;47.856;17.462;2023-03-14T09:54:23;11.50;49.50
33943;DHT22;66763;47.856;17.462;2023-03-14T09:56:49;11.50;49.50
33943;DHT22;66763;47.856;17.462;2023-03-14T09:59:15;11.50;49.50
33943;DHT22;66763;47.856;17.462;2023-03-14T10:01:41;11.50;49.50
33943;DHT22;66763;47.856;17.462;2023-03-14T10:04:10;11.50;49.50
33943;DHT22;66763;47.856;17.462;2023-03-14T10:06:36;11.50;49.50
33943;DHT22;66763;47.856;17.462;2023-03-14T10:09:02;11.50;49.40
33943;DHT22;66763;47.856;17.462;2023-03-14T10:11:27;11.50;49.50
33943;DHT22;66763;47.856;17.462;2023-03-14T10:16:19;11.50;49.50
33943;DHT22;66763;47.856;17.462;2023-03-14T10:18:53;11.50;49.50
33943;DHT22;66763;47.856;17.462;2023-03-14T10:21:26;11.50;49.50
33943;DHT22;66763;47.856;17.462;2023-03-14T10:23:52;11.50;49.60
33943;DHT22;66763;47.856;17.462;2023-03-14T10:26:27;11.50;49.50
33943;DHT22;66763;47.856;17.462;2023-03-14T10:28:54;11.50;49.60
33943;DHT22;66763;47.856;17.462;2023-03-14T10:31:26;11.50;49.60
33943;DHT22;66763;47.856;17.462;2023-03-14T10:34:02;11.50;49.60
33943;DHT22;66763;47.856;17.462;2023-03-14T10:36:28;11.50;49.70
33943;DHT22;66763;47.856;17.462;2023-03-14T10:41:38;11.50;49.70
33943;DHT22;66763;47.856;17.462;2023-03-14T10:44:04;11.50;49.80
33943;DHT22;66763;47.856;17.462;2023-03-14T10:46:31;11.50;49.80
33943;DHT22;66763;47.856;17.462;2023-03-14T10:48:57;11.50;49.90
33943;DHT22;66763;47.856;17.462;2023-03-14T10:51:27;11.50;49.90
33943;DHT22;66763;47.856;17.462;2023-03-14T10:54:00;11.50;49.90
33943;DHT22;66763;47.856;17.462;2023-03-14T10:56:26;11.50;49.90
33943;DHT22;66763;47.856;17.462;2023-03-14T10:58:53;11.50;49.90
33943;DHT22;66763;47.856;17.462;2023-03-14T11:03:51;11.50;50.10
33943;DHT22;66763;47.856;17.462;2023-03-14T11:06:23;11.50;50.00
33943;DHT22;66763;47.856;17.462;2023-03-14T11:11:36;11.50;50.00
33943;DHT22;66763;47.856;17.462;2023-03-14T11:14:36;11.50;50.00
33943;DHT22;66763;47.856;17.462;2023-03-14T11:19:27;11.50;50.20
33943;DHT22;66763;47.856;17.462;2023-03-14T11:21:56;11.60;50.20
33943;DHT22;66763;47.856;17.462;2023-03-14T11:24:31;11.60;50.30
33943;DHT22;66763;47.856;17.462;2023-03-14T11:27:15;11.60;50.20
33943;DHT22;66763;47.856;17.462;2023-03-14T11:29:55;11.50;50.20
33943;DHT22;66763;47.856;17.462;2023-03-14T11:34:56;11.50;50.30
33943;DHT22;66763;47.856;17.462;2023-03-14T11:37:34;11.50;50.40
33943;DHT22;66763;47.856;17.462;2023-03-14T11:40:03;11.50;50.30
33943;DHT22;66763;47.856;17.462;2023-03-14T11:42:30;11.50;50.30
33943;DHT22;66763;47.856;17.462;2023-03-14T11:44:57;11.50;50.40
33943;DHT22;66763;47.856;17.462;2023-03-14T11:47:25;11.50;50.30
33943;DHT22;66763;47.856;17.462;2023-03-14T11:49:53;11.50;50.30
33943;DHT22;66763;47.856;17.462;2023-03-14T11:55:12;11.50;50.40
33943;DHT22;66763;47.856;17.462;2023-03-14T11:57:36;11.60;50.50
33943;DHT22;66763;47.856;17.462;2023-03-14T12:00:20;11.50;50.50
33943;DHT22;66763;47.856;17.462;2023-03-14T12:10:26;11.50;50.40
33943;DHT22;66763;47.856;17.462;2023-03-14T12:12:52;11.50;50.40
33943;DHT22;66763;47.856;17.462;2023-03-14T12:15:19;11.50;50.40
33943;DHT22;66763;47.856;17.462;2023-03-14T12:17:45;11.60;50.50
33943;DHT22;66763;47.856;17.462;2023-03-14T12:23:22;11.60;50.50
33943;DHT22;66763;47.856;17.462;2023-03-14T12:25:29;11.50;50.40
33943;DHT22;66763;47.856;17.462;2023-03-14T12:35:35;11.60;50.50
33943;DHT22;66763;47.856;17.462;2023-03-14T12:38:02;11.60;50.50
33943;DHT22;66763;47.856;17.462;2023-03-14T12:41:15;11.60;50.50
33943;DHT22;66763;47.856;17.462;2023-03-14T12:43:27;11.50;50.40
33943;DHT22;66763;47.856;17.462;2023-03-14T12:48:34;11.50;50.40
33943;DHT22;66763;47.856;17.462;2023-03-14T12:51:01;11.50;50.50
33943;DHT22;66763;47.856;17.462;2023-03-14T12:56:02;11.50;50.40
33943;DHT22;66763;47.856;17.462;2023-03-14T13:00:59;11.60;50.40
33943;DHT22;66763;47.856;17.462;2023-03-14T13:03:27;11.60;50.50
33943;DHT22;66763;47.856;17.462;2023-03-14T13:06:01;11.60;50.40
33943;DHT22;66763;47.856;17.462;2023-03-14T13:08:37;11.60;50.40
33943;DHT22;66763;47.856;17.462;2023-03-14T13:11:04;11.60;50.30
33943;DHT22;66763;47.856;17.462;2023-03-14T13:13:30;11.60;50.40
33943;DHT22;66763;47.856;17.462;2023-03-14T13:15:59;11.50;50.30
33943;DHT22;66763;47.856;17.462;2023-03-14T13:18:49;11.60;50.40
33943;DHT22;66763;47.856;17.462;2023-03-14T13:21:23;11.60;50.40
33943;DHT22;66763;47.856;17.462;2023-03-14T13:24:23;11.50;50.40
33943;DHT22;66763;47.856;17.462;2023-03-14T13:26:42;11.50;50.30
33943;DHT22;66763;47.856;17.462;2023-03-14T13:29:08;11.50;50.30
33943;DHT22;66763;47.856;17.462;2023-03-14T13:31:34;11.60;50.40
33943;DHT22;66763;47.856;17.462;2023-03-14T13:34:00;11.50;50.30
33943;DHT22;66763;47.856;17.462;2023-03-14T13:36:27;11.50;50.30
33943;DHT22;66763;47.856;17.462;2023-03-14T13:38:56;11.60;50.40
33943;DHT22;66763;47.856;17.462;2023-03-14T13:41:22;11.50;50.30
33943;DHT22;66763;47.856;17.462;2023-03-14T13:43:48;11.60;50.40
33943;DHT22;66763;47.856;17.462;2023-03-14T13:46:19;11.50;50.20
33943;DHT22;66763;47.856;17.462;2023-03-14T13:48:49;11.50;50.20
33943;DHT22;66763;47.856;17.462;2023-03-14T13:51:18;11.60;50.30
33943;DHT22;66763;47.856;17.462;2023-03-14T13:53:51;11.50;50.20
33943;DHT22;66763;47.856;17.462;2023-03-14T13:56:18;11.50;50.20
33943;DHT22;66763;47.856;17.462;2023-03-14T13:58:43;11.60;50.30
33943;DHT22;66763;47.856;17.462;2023-03-14T14:03:39;11.50;50.20
33943;DHT22;66763;47.856;17.462;2023-03-14T14:06:06;11.50;50.30
33943;DHT22;66763;47.856;17.462;2023-03-14T14:08:33;11.50;50.20
33943;DHT22;66763;47.856;17.462;2023-03-14T14:10:59;11.50;50.30
33943;DHT22;66763;47.856;17.462;2023-03-14T14:13:26;11.60;50.30
33943;DHT22;66763;47.856;17.462;2023-03-14T14:15:52;11.60;50.30
33943;DHT22;66763;47.856;17.462;2023-03-14T14:18:19;11.50;50.20
33943;DHT22;66763;47.856;17.462;2023-03-14T14:20:46;11.60;50.20
33943;DHT22;66763;47.856;17.462;2023-03-14T14:25:37;11.60;50.20
33943;DHT22;66763;47.856;17.462;2023-03-14T14:30:40;11.60;50.20
33943;DHT22;66763;47.856;17.462;2023-03-14T14:33:10;11.50;50.70
33943;DHT22;66763;47.856;17.462;2023-03-14T14:35:36;11.50;50.10
33943;DHT22;66763;47.856;17.462;2023-03-14T14:38:02;11.50;50.10
33943;DHT22;66763;47.856;17.462;2023-03-14T14:40:28;11.60;50.20
33943;DHT22;66763;47.856;17.462;2023-03-14T14:42:54;11.50;50.10
33943;DHT22;66763;47.856;17.462;2023-03-14T14:45:21;11.50;50.10
33943;DHT22;66763;47.856;17.462;2023-03-14T14:47:53;11.60;50.10
33943;DHT22;66763;47.856;17.462;2023-03-14T14:50:37;11.50;50.00
33943;DHT22;66763;47.856;17.462;2023-03-14T14:53:19;11.50;50.00
33943;DHT22;66763;47.856;17.462;2023-03-14T14:55:49;11.60;50.10
33943;DHT22;66763;47.856;17.462;2023-03-14T14:58:18;11.50;50.10
33943;DHT22;66763;47.856;17.462;2023-03-14T15:01:20;11.50;50.00
33943;DHT22;66763;47.856;17.462;2023-03-14T15:03:37;11.50;50.10
33943;DHT22;66763;47.856;17.462;2023-03-14T15:06:03;11.50;50.10
33943;DHT22;66763;47.856;17.462;2023-03-14T15:08:29;11.50;50.10
33943;DHT22;66763;47.856;17.462;2023-03-14T15:10:55;11.60;50.10
33943;DHT22;66763;47.856;17.462;2023-03-14T15:13:21;11.50;50.00
33943;DHT22;66763;47.856;17.462;2023-03-14T15:15:46;11.50;50.10
33943;DHT22;66763;47.856;17.462;2023-03-14T15:18:16;11.60;50.10
33943;DHT22;66763;47.856;17.462;2023-03-14T15:20:43;11.50;50.00
33943;DHT22;66763;47.856;17.462;2023-03-14T15:23:12;11.50;50.00
33943;DHT22;66763;47.856;17.462;2023-03-14T15:25:38;11.50;50.10
33943;DHT22;66763;47.856;17.462;2023-03-14T15:28:40;11.50;50.10
33943;DHT22;66763;47.856;17.462;2023-03-14T15:30:59;11.50;50.00
33943;DHT22;66763;47.856;17.462;2023-03-14T15:33:25;11.50;50.10
33943;DHT22;66763;47.856;17.462;2023-03-14T15:35:51;11.50;50.10
33943;DHT22;66763;47.856;17.462;2023-03-14T15:38:19;11.60;50.20
33943;DHT22;66763;47.856;17.462;2023-03-14T15:40:46;11.50;50.10
33943;DHT22;66763;47.856;17.462;2023-03-14T15:43:12;11.50;50.00
33943;DHT22;66763;47.856;17.462;2023-03-14T15:45:37;11.50;50.10
33943;DHT22;66763;47.856;17.462;2023-03-14T15:48:03;11.50;50.00
33943;DHT22;66763;47.856;17.462;2023-03-14T15:50:29;11.50;50.00
33943;DHT22;66763;47.856;17.462;2023-03-14T15:52:54;11.50;50.00
33943;DHT22;66763;47.856;17.462;2023-03-14T15:55:21;11.50;50.10
33943;DHT22;66763;47.856;17.462;2023-03-14T15:57:47;11.50;50.00
33943;DHT22;66763;47.856;17.462;2023-03-14T16:00:16;11.50;50.00
33943;DHT22;66763;47.856;17.462;2023-03-14T16:02:47;11.50;50.00
33943;DHT22;66763;47.856;17.462;2023-03-14T16:05:13;11.50;50.00
33943;DHT22;66763;47.856;17.462;2023-03-14T16:07:38;11.50;50.10
33943;DHT22;66763;47.856;17.462;2023-03-14T16:10:04;11.60;50.10
33943;DHT22;66763;47.856;17.462;2023-03-14T16:12:31;11.50;50.00
33943;DHT22;66763;47.856;17.462;2023-03-14T16:14:56;11.50;50.00
33943;DHT22;66763;47.856;17.462;2023-03-14T16:17:22;11.50;50.00
33943;DHT22;66763;47.856;17.462;2023-03-14T16:19:47;11.50;50.00